Redwood City, CA

9:00 PM PDT on September 30, 2014 (GMT -0700)
Redwood Shores - Baltic Circle | Change Station
CLOSE
Current Station
Personal Weather Station
Location: Redwood City, CA
Elevation: -10 ft
Nearby Weather Stations

Elev -10 ft 37.54 °N, 122.24 °W | Updated 14 minutes ago

Partly Cloudy
Partly Cloudy
69.1 °F
Feels Like 69.1 °F
N
0.0
Wind Variable Wind from West
Gusts 0.0 mph

Today
High -- | Low -- °F
--% Chance of Precip.
Yesterday
High -- | Low -- °F
Precip. -- in
7:03 AM 6:53 PM
Waxing Crescent, 43% visible
Pressure 29.99 in
Visibility 10.0 miles
Clouds Few 1200 ft
Dew Point 57 °F
Humidity 65%
Rainfall 0.00 in
Snow Depth 0 in , 0 in , 0 in
UV 0 out of 12
Pollen 2.80 out of 12
Ozone Good
PM2.5 Good
Flu Activity Not available.
METAR KSQL 300147Z 29006KT 10SM FEW012 18/13 A2999

More Conditions Fewer Conditions

Pressure 29.99 in
Visibility 10.0 miles
Clouds Few 1200 ft
Dew Point 57 °F
Humidity 65%
Rainfall 0.00 in
Snow Depth 0 in , 0 in , 0 in
UV 0 out of 12
Pollen 2.80 out of 12
Ozone Good
PM2.5 Good
Flu Activity Not available.
METAR KSQL 300147Z 29006KT 10SM FEW012 18/13 A2999

More Conditions Fewer Conditions

10-Day Weather Forecast

Almanac

Astronomy

Sep. 30, 2014 Rise Set
Actual Time 7:03 AM PDT 6:53 PM PDT
Civil Twilight 6:37 AM PDT 7:19 PM PDT
Nautical Twilight 6:07 AM PDT 7:49 PM PDT
Astronomical Twilight 5:36 AM PDT 8:20 PM PDT
Moon 1:11 PM PDT (9/30) 11:34 PM PDT (9/30)
Length of Visible Light 12h 41m
Length of Day
11h 49m
Tomorrow will be 2m 23s shorter.
Waxing Crescent, 43% of the Moon is Illuminated
Oct 1
Waxing Crescent
Oct 1
First Quarter
Oct 8
Full
Oct 15
Last Quarter
Oct 23
New

Today's Extremes

State Highs State Lows

Community

WunderPhotos

Upload Photos

1,757,840 photos uploaded!

Nearby

Air Quality

  Air Quality AQ Index Pollutant
Yesterday Good
PM2.5
Yesterday Good
OZONE
Current Good
PM2.5
Current Good
OZONE
Tuesday Good
PM2.5
Wednesday Good
PM2.5
Thursday Moderate
PM2.5
Friday Moderate
PM2.5
Saturday Moderate
PM2.5
Sunday Moderate
PM2.5

Snow Depth

Station Depth Elevation
Forestdale Creek 0 in 8029 ft
Monitor Pass 0 in 8350 ft
Squaw Valley 0 in 8200 ft
Spratt Creek 1 in 6200 ft
Rubicon #2 0 in 7500 ft

Earthquake Activity

City Distance Mag. Time & Date
Shandon, California 160 miles 2.9 5:34 PM PDT
2014-09-30
East Foothills, California 26 miles 2.6 3:34 PM PDT
2014-09-30
South Dos Palos, California 99 miles 2.7 3:08 PM PDT
2014-09-30
South Dos Palos, California 99 miles 2.5 9:18 PM PDT
2014-09-29
Minimum magnitude displayed is 2.5.

Coastal Water Temperatures

Place Temperature
No Stations Reporting

Nearby Weather Stations